RJTQ(METAR)
06/28 16:00
RJTQ 280700Z 02005KT 9999 FEW010 BKN017 BKNXXX 24/22 Q1012 RMK
A2991=
戻る
トップページへ戻る
IMOC Co,.Ltd.